Patricks Island, Cayman Islands

10:01 PM EST on March 29, 2015 (GMT -0500)
Crewe Road, G.T. | | Change Station
CLOSE
Current Station
Personal Weather Station
Location: George Town, Grand Cayman
Elevation: 10 ft
Nearby Weather Stations

Elev 10 ft 19.29 °N, 81.36 °W | Updated 6 seconds ago

Scattered Clouds
Scattered Clouds
78.9 °F
Feels Like 82 °F
N
10.0
Wind Variable Wind from ENE
Gusts 21.0 mph

Today
High -- | Low -- °F
--% Chance of Precip.
Yesterday
High -- | Low -- °F
Precip. -- in
6:21 AM 6:38 PM
Waxing Gibbous, 76% visible
Pressure 30.12 in
Visibility 6.2 miles
Clouds Scattered Clouds 1600 ft
Scattered Clouds 8000 ft
Heat Index 82 °F
Dew Point 70 °F
Humidity 74%
Rainfall 1.38 in
Snow Depth Not available.
UV 0.0 out of 12
Pollen Not available.
Air Quality Not available.
Flu Activity Not available.
METAR MWCR 300300Z 05015KT 9999 SCT016 SCT080 26/21 Q1020

More Conditions Fewer Conditions

Pressure 30.12 in
Visibility 6.2 miles
Clouds Scattered Clouds 1600 ft
Scattered Clouds 8000 ft
Heat Index 82 °F
Dew Point 70 °F
Humidity 74%
Rainfall 1.38 in
Snow Depth Not available.
UV 0.0 out of 12
Pollen Not available.
Air Quality Not available.
Flu Activity Not available.
METAR MWCR 300300Z 05015KT 9999 SCT016 SCT080 26/21 Q1020

More Conditions Fewer Conditions

10-Day Weather Forecast

Almanac

Astronomy

Mar. 29, 2015 Rise Set
Actual Time
Civil Twilight
Nautical Twilight
Astronomical Twilight
Moon
Length of Visible Light
Length of Day
Tomorrow will be .
, % of the Moon is Illuminated

Today's Extremes

Country Highs Country Lows

Community

WunderPhotos

Upload Photos

1,809,417 photos uploaded!

WunderBlogs® & News

Nearby

Air Quality

  Air Quality AQ Index Pollutant
Not available.

Snow Depth

Station Depth Elevation

Earthquake Activity

City Distance Mag. Time & Date
Minimum magnitude displayed is 2.5.

Coastal Water Temperatures

Place Temperature

Stations

Nearby Weather Stations

Station Location Temp. Windchill Dew Point Humidity Wind Precip. Elev Updated Type